sensor_id;sensor_type;location;lat;lon;timestamp;temperature;humidity
8896;DHT22;4484;48.928;10.066;2023-03-01T00:01:08;-3.90;99.90
8896;DHT22;4484;48.928;10.066;2023-03-01T00:03:36;-3.90;99.90
8896;DHT22;4484;48.928;10.066;2023-03-01T00:06:03;-4.00;99.90
8896;DHT22;4484;48.928;10.066;2023-03-01T00:08:31;-4.00;99.90
8896;DHT22;4484;48.928;10.066;2023-03-01T00:11:03;-4.00;99.90
8896;DHT22;4484;48.928;10.066;2023-03-01T00:13:30;-4.00;99.90
8896;DHT22;4484;48.928;10.066;2023-03-01T00:15:57;-4.10;99.90
8896;DHT22;4484;48.928;10.066;2023-03-01T00:18:24;-4.10;99.90
8896;DHT22;4484;48.928;10.066;2023-03-01T00:20:55;-4.10;99.90
8896;DHT22;4484;48.928;10.066;2023-03-01T00:23:22;-4.10;99.90
8896;DHT22;4484;48.928;10.066;2023-03-01T00:25:50;-4.10;99.90
8896;DHT22;4484;48.928;10.066;2023-03-01T00:28:17;-4.10;99.90
8896;DHT22;4484;48.928;10.066;2023-03-01T00:30:45;-4.10;99.90
8896;DHT22;4484;48.928;10.066;2023-03-01T00:33:12;-4.10;99.90
8896;DHT22;4484;48.928;10.066;2023-03-01T00:35:39;-4.00;99.90
8896;DHT22;4484;48.928;10.066;2023-03-01T00:38:06;-4.00;99.90
8896;DHT22;4484;48.928;10.066;2023-03-01T00:40:34;-3.90;99.90
8896;DHT22;4484;48.928;10.066;2023-03-01T00:43:02;-3.90;99.90
8896;DHT22;4484;48.928;10.066;2023-03-01T00:45:29;-3.80;99.90
8896;DHT22;4484;48.928;10.066;2023-03-01T00:47:58;-3.70;99.90
8896;DHT22;4484;48.928;10.066;2023-03-01T00:50:25;-3.70;99.90
8896;DHT22;4484;48.928;10.066;2023-03-01T00:52:54;-3.60;99.90
8896;DHT22;4484;48.928;10.066;2023-03-01T00:55:21;-3.60;99.90
8896;DHT22;4484;48.928;10.066;2023-03-01T00:57:48;-3.50;99.90
8896;DHT22;4484;48.928;10.066;2023-03-01T01:00:15;-3.50;99.90
8896;DHT22;4484;48.928;10.066;2023-03-01T01:02:42;-3.40;99.90
8896;DHT22;4484;48.928;10.066;2023-03-01T01:05:09;-3.40;99.90
8896;DHT22;4484;48.928;10.066;2023-03-01T01:07:36;-3.30;99.90
8896;DHT22;4484;48.928;10.066;2023-03-01T01:10:04;-3.30;99.90
8896;DHT22;4484;48.928;10.066;2023-03-01T01:12:31;-3.30;99.90
8896;DHT22;4484;48.928;10.066;2023-03-01T01:14:58;-3.20;99.90
8896;DHT22;4484;48.928;10.066;2023-03-01T01:17:25;-3.20;99.90
8896;DHT22;4484;48.928;10.066;2023-03-01T01:19:52;-3.20;99.90
8896;DHT22;4484;48.928;10.066;2023-03-01T01:22:19;-3.10;99.90
8896;DHT22;4484;48.928;10.066;2023-03-01T01:24:45;-3.10;99.90
8896;DHT22;4484;48.928;10.066;2023-03-01T01:27:12;-3.00;99.90
8896;DHT22;4484;48.928;10.066;2023-03-01T01:29:39;-3.00;99.90
8896;DHT22;4484;48.928;10.066;2023-03-01T01:32:05;-3.00;99.90
8896;DHT22;4484;48.928;10.066;2023-03-01T01:34:32;-3.00;99.90
8896;DHT22;4484;48.928;10.066;2023-03-01T01:36:59;-2.90;99.90
8896;DHT22;4484;48.928;10.066;2023-03-01T01:39:29;-2.90;99.90
8896;DHT22;4484;48.928;10.066;2023-03-01T01:41:56;-2.90;99.90
8896;DHT22;4484;48.928;10.066;2023-03-01T01:44:27;-2.80;99.90
8896;DHT22;4484;48.928;10.066;2023-03-01T01:49:37;-2.80;99.90
8896;DHT22;4484;48.928;10.066;2023-03-01T01:52:17;-2.80;99.90
8896;DHT22;4484;48.928;10.066;2023-03-01T01:54:55;-2.70;99.90
8896;DHT22;4484;48.928;10.066;2023-03-01T01:57:36;-2.70;99.90
8896;DHT22;4484;48.928;10.066;2023-03-01T02:00:19;-2.70;99.90
8896;DHT22;4484;48.928;10.066;2023-03-01T02:02:48;-2.60;99.90
8896;DHT22;4484;48.928;10.066;2023-03-01T02:06:06;-2.60;99.90
8896;DHT22;4484;48.928;10.066;2023-03-01T02:08:08;-2.60;99.90
8896;DHT22;4484;48.928;10.066;2023-03-01T02:10:37;-2.50;99.90
8896;DHT22;4484;48.928;10.066;2023-03-01T02:13:04;-2.50;99.90
8896;DHT22;4484;48.928;10.066;2023-03-01T02:15:32;-2.50;99.90
8896;DHT22;4484;48.928;10.066;2023-03-01T02:18:01;-2.40;99.90
8896;DHT22;4484;48.928;10.066;2023-03-01T02:23:22;-2.40;99.90
8896;DHT22;4484;48.928;10.066;2023-03-01T02:25:56;-2.40;99.90
8896;DHT22;4484;48.928;10.066;2023-03-01T02:28:36;-2.40;99.90
8896;DHT22;4484;48.928;10.066;2023-03-01T02:31:07;-2.40;99.90
8896;DHT22;4484;48.928;10.066;2023-03-01T02:33:53;-2.30;99.90
8896;DHT22;4484;48.928;10.066;2023-03-01T02:36:26;-2.30;99.90
8896;DHT22;4484;48.928;10.066;2023-03-01T02:38:58;-2.30;99.90
8896;DHT22;4484;48.928;10.066;2023-03-01T02:41:28;-2.30;99.90
8896;DHT22;4484;48.928;10.066;2023-03-01T02:43:57;-2.30;99.90
8896;DHT22;4484;48.928;10.066;2023-03-01T02:46:25;-2.30;99.90
8896;DHT22;4484;48.928;10.066;2023-03-01T02:48:56;-2.20;99.90
8896;DHT22;4484;48.928;10.066;2023-03-01T02:54:10;-2.20;99.90
8896;DHT22;4484;48.928;10.066;2023-03-01T02:56:41;-2.20;99.90
8896;DHT22;4484;48.928;10.066;2023-03-01T02:59:09;-2.20;99.90
8896;DHT22;4484;48.928;10.066;2023-03-01T03:01:36;-2.20;99.90
8896;DHT22;4484;48.928;10.066;2023-03-01T03:04:12;-2.20;99.90
8896;DHT22;4484;48.928;10.066;2023-03-01T03:06:46;-2.20;99.90
8896;DHT22;4484;48.928;10.066;2023-03-01T03:09:15;-2.20;99.90
8896;DHT22;4484;48.928;10.066;2023-03-01T03:11:43;-2.20;99.90
8896;DHT22;4484;48.928;10.066;2023-03-01T03:14:11;-2.20;99.90
8896;DHT22;4484;48.928;10.066;2023-03-01T03:16:49;-2.30;99.90
8896;DHT22;4484;48.928;10.066;2023-03-01T03:19:17;-2.30;99.90
8896;DHT22;4484;48.928;10.066;2023-03-01T03:21:45;-2.30;99.90
8896;DHT22;4484;48.928;10.066;2023-03-01T03:24:12;-2.30;99.90
8896;DHT22;4484;48.928;10.066;2023-03-01T03:26:39;-2.30;99.90
8896;DHT22;4484;48.928;10.066;2023-03-01T03:29:05;-2.30;99.90
8896;DHT22;4484;48.928;10.066;2023-03-01T03:31:32;-2.30;99.90
8896;DHT22;4484;48.928;10.066;2023-03-01T03:34:00;-2.30;99.90
8896;DHT22;4484;48.928;10.066;2023-03-01T03:36:27;-2.30;99.90
8896;DHT22;4484;48.928;10.066;2023-03-01T03:38:54;-2.30;99.90
8896;DHT22;4484;48.928;10.066;2023-03-01T03:41:20;-2.30;99.90
8896;DHT22;4484;48.928;10.066;2023-03-01T03:43:47;-2.30;99.90
8896;DHT22;4484;48.928;10.066;2023-03-01T03:46:15;-2.30;99.90
8896;DHT22;4484;48.928;10.066;2023-03-01T03:48:44;-2.30;99.90
8896;DHT22;4484;48.928;10.066;2023-03-01T03:51:13;-2.30;99.90
8896;DHT22;4484;48.928;10.066;2023-03-01T03:53:40;-2.30;99.90
8896;DHT22;4484;48.928;10.066;2023-03-01T03:56:08;-2.40;99.90
8896;DHT22;4484;48.928;10.066;2023-03-01T03:58:35;-2.40;99.90
8896;DHT22;4484;48.928;10.066;2023-03-01T04:01:02;-2.40;99.90
8896;DHT22;4484;48.928;10.066;2023-03-01T04:03:30;-2.40;99.90
8896;DHT22;4484;48.928;10.066;2023-03-01T04:05:59;-2.40;99.90
8896;DHT22;4484;48.928;10.066;2023-03-01T04:08:27;-2.40;99.90
8896;DHT22;4484;48.928;10.066;2023-03-01T04:11:00;-2.40;99.90
8896;DHT22;4484;48.928;10.066;2023-03-01T04:13:47;-2.40;99.90
8896;DHT22;4484;48.928;10.066;2023-03-01T04:16:14;-2.40;99.90
8896;DHT22;4484;48.928;10.066;2023-03-01T04:18:40;-2.50;99.90
8896;DHT22;4484;48.928;10.066;2023-03-01T04:21:07;-2.40;99.90
8896;DHT22;4484;48.928;10.066;2023-03-01T04:23:34;-2.40;99.90
8896;DHT22;4484;48.928;10.066;2023-03-01T04:26:01;-2.40;99.90
8896;DHT22;4484;48.928;10.066;2023-03-01T04:28:34;-2.40;99.90
8896;DHT22;4484;48.928;10.066;2023-03-01T04:31:06;-2.40;99.90
8896;DHT22;4484;48.928;10.066;2023-03-01T04:33:42;-2.40;99.90
8896;DHT22;4484;48.928;10.066;2023-03-01T04:36:10;-2.40;99.90
8896;DHT22;4484;48.928;10.066;2023-03-01T04:38:38;-2.40;99.90
8896;DHT22;4484;48.928;10.066;2023-03-01T04:41:07;-2.40;99.90
8896;DHT22;4484;48.928;10.066;2023-03-01T04:43:34;-2.40;99.90
8896;DHT22;4484;48.928;10.066;2023-03-01T04:46:04;-2.30;99.90
8896;DHT22;4484;48.928;10.066;2023-03-01T04:48:31;-2.30;99.90
8896;DHT22;4484;48.928;10.066;2023-03-01T04:50:59;-2.30;99.90
8896;DHT22;4484;48.928;10.066;2023-03-01T04:53:26;-2.30;99.90
8896;DHT22;4484;48.928;10.066;2023-03-01T04:55:55;-2.30;99.90
8896;DHT22;4484;48.928;10.066;2023-03-01T04:58:23;-2.30;99.90
8896;DHT22;4484;48.928;10.066;2023-03-01T05:00:51;-2.30;99.90
8896;DHT22;4484;48.928;10.066;2023-03-01T05:03:18;-2.30;99.90
8896;DHT22;4484;48.928;10.066;2023-03-01T05:05:49;-2.30;99.90
8896;DHT22;4484;48.928;10.066;2023-03-01T05:08:16;-2.30;99.90
8896;DHT22;4484;48.928;10.066;2023-03-01T05:10:51;-2.30;99.90
8896;DHT22;4484;48.928;10.066;2023-03-01T05:13:20;-2.30;99.90
8896;DHT22;4484;48.928;10.066;2023-03-01T05:15:55;-2.30;99.90
8896;DHT22;4484;48.928;10.066;2023-03-01T05:18:26;-2.40;99.90
8896;DHT22;4484;48.928;10.066;2023-03-01T05:21:01;-2.40;99.90
8896;DHT22;4484;48.928;10.066;2023-03-01T05:23:32;-2.40;99.90
8896;DHT22;4484;48.928;10.066;2023-03-01T05:26:04;-2.50;99.90
8896;DHT22;4484;48.928;10.066;2023-03-01T05:28:33;-2.50;99.90
8896;DHT22;4484;48.928;10.066;2023-03-01T05:31:00;-2.50;99.90
8896;DHT22;4484;48.928;10.066;2023-03-01T05:33:27;-2.60;99.90
8896;DHT22;4484;48.928;10.066;2023-03-01T05:35:59;-2.60;99.90
8896;DHT22;4484;48.928;10.066;2023-03-01T05:38:26;-2.70;99.90
8896;DHT22;4484;48.928;10.066;2023-03-01T05:40:53;-2.80;99.90
8896;DHT22;4484;48.928;10.066;2023-03-01T05:43:20;-2.80;99.90
8896;DHT22;4484;48.928;10.066;2023-03-01T05:45:47;-2.90;99.90
8896;DHT22;4484;48.928;10.066;2023-03-01T05:48:14;-3.00;99.90
8896;DHT22;4484;48.928;10.066;2023-03-01T05:50:43;-3.00;99.90
8896;DHT22;4484;48.928;10.066;2023-03-01T05:53:18;-3.10;99.90
8896;DHT22;4484;48.928;10.066;2023-03-01T05:55:48;-3.20;99.90
8896;DHT22;4484;48.928;10.066;2023-03-01T05:58:18;-3.20;99.90
8896;DHT22;4484;48.928;10.066;2023-03-01T06:00:48;-3.30;99.90
8896;DHT22;4484;48.928;10.066;2023-03-01T06:03:16;-3.30;99.90
8896;DHT22;4484;48.928;10.066;2023-03-01T06:05:44;-3.40;99.90
8896;DHT22;4484;48.928;10.066;2023-03-01T06:08:12;-3.40;99.90
8896;DHT22;4484;48.928;10.066;2023-03-01T06:10:39;-3.50;99.90
8896;DHT22;4484;48.928;10.066;2023-03-01T06:13:06;-3.50;99.90
8896;DHT22;4484;48.928;10.066;2023-03-01T06:15:33;-3.50;99.90
8896;DHT22;4484;48.928;10.066;2023-03-01T06:18:00;-3.50;99.90
8896;DHT22;4484;48.928;10.066;2023-03-01T06:20:28;-3.60;99.90
8896;DHT22;4484;48.928;10.066;2023-03-01T06:22:55;-3.60;99.90
8896;DHT22;4484;48.928;10.066;2023-03-01T06:25:24;-3.60;99.90
8896;DHT22;4484;48.928;10.066;2023-03-01T06:27:51;-3.60;99.90
8896;DHT22;4484;48.928;10.066;2023-03-01T06:30:20;-3.60;99.90
8896;DHT22;4484;48.928;10.066;2023-03-01T06:32:47;-3.60;99.90
8896;DHT22;4484;48.928;10.066;2023-03-01T06:35:15;-3.60;99.90
8896;DHT22;4484;48.928;10.066;2023-03-01T06:37:47;-3.60;99.90
8896;DHT22;4484;48.928;10.066;2023-03-01T06:40:14;-3.60;99.90
8896;DHT22;4484;48.928;10.066;2023-03-01T06:42:43;-3.60;99.90
8896;DHT22;4484;48.928;10.066;2023-03-01T06:45:10;-3.60;99.90
8896;DHT22;4484;48.928;10.066;2023-03-01T06:47:37;-3.60;99.90
8896;DHT22;4484;48.928;10.066;2023-03-01T06:50:05;-3.60;99.90
8896;DHT22;4484;48.928;10.066;2023-03-01T06:52:32;-3.60;99.90
8896;DHT22;4484;48.928;10.066;2023-03-01T06:54:59;-3.60;99.90
8896;DHT22;4484;48.928;10.066;2023-03-01T06:57:26;-3.60;99.90
8896;DHT22;4484;48.928;10.066;2023-03-01T06:59:53;-3.50;99.90
8896;DHT22;4484;48.928;10.066;2023-03-01T07:02:20;-3.50;99.90
8896;DHT22;4484;48.928;10.066;2023-03-01T07:04:49;-3.40;99.90
8896;DHT22;4484;48.928;10.066;2023-03-01T07:07:16;-3.40;99.90
8896;DHT22;4484;48.928;10.066;2023-03-01T07:09:45;-3.40;99.90
8896;DHT22;4484;48.928;10.066;2023-03-01T07:12:12;-3.40;99.90
8896;DHT22;4484;48.928;10.066;2023-03-01T07:14:39;-3.40;99.90
8896;DHT22;4484;48.928;10.066;2023-03-01T07:17:06;-3.30;99.90
8896;DHT22;4484;48.928;10.066;2023-03-01T07:19:33;-3.20;99.90
8896;DHT22;4484;48.928;10.066;2023-03-01T07:22:00;-3.00;99.90
8896;DHT22;4484;48.928;10.066;2023-03-01T07:24:27;-2.70;99.90
8896;DHT22;4484;48.928;10.066;2023-03-01T07:26:53;-2.40;99.90
8896;DHT22;4484;48.928;10.066;2023-03-01T07:29:20;-2.10;99.90
8896;DHT22;4484;48.928;10.066;2023-03-01T07:31:47;-1.70;99.90
8896;DHT22;4484;48.928;10.066;2023-03-01T07:34:14;-1.40;99.90
8896;DHT22;4484;48.928;10.066;2023-03-01T07:36:41;-1.20;99.90
8896;DHT22;4484;48.928;10.066;2023-03-01T07:39:11;-1.00;99.90
8896;DHT22;4484;48.928;10.066;2023-03-01T07:41:37;-0.70;99.90
8896;DHT22;4484;48.928;10.066;2023-03-01T07:44:05;-0.50;99.90
8896;DHT22;4484;48.928;10.066;2023-03-01T07:46:32;-0.20;99.90
8896;DHT22;4484;48.928;10.066;2023-03-01T07:48:59;0.10;99.90
8896;DHT22;4484;48.928;10.066;2023-03-01T07:51:26;0.40;99.90
8896;DHT22;4484;48.928;10.066;2023-03-01T07:53:53;0.80;99.90
8896;DHT22;4484;48.928;10.066;2023-03-01T07:56:19;1.10;99.90
8896;DHT22;4484;48.928;10.066;2023-03-01T07:58:48;1.40;99.90
8896;DHT22;4484;48.928;10.066;2023-03-01T08:01:20;1.50;99.90
8896;DHT22;4484;48.928;10.066;2023-03-01T08:03:47;1.80;99.90
8896;DHT22;4484;48.928;10.066;2023-03-01T08:06:16;2.10;99.90
8896;DHT22;4484;48.928;10.066;2023-03-01T08:08:43;2.50;99.90
8896;DHT22;4484;48.928;10.066;2023-03-01T08:11:12;2.90;99.90
8896;DHT22;4484;48.928;10.066;2023-03-01T08:13:39;3.30;99.90
8896;DHT22;4484;48.928;10.066;2023-03-01T08:16:14;3.70;99.90
8896;DHT22;4484;48.928;10.066;2023-03-01T08:18:42;3.80;99.90
8896;DHT22;4484;48.928;10.066;2023-03-01T08:21:12;3.90;99.90
8896;DHT22;4484;48.928;10.066;2023-03-01T08:23:39;4.40;99.90
8896;DHT22;4484;48.928;10.066;2023-03-01T08:26:12;4.90;99.90
8896;DHT22;4484;48.928;10.066;2023-03-01T08:28:40;5.20;99.90
8896;DHT22;4484;48.928;10.066;2023-03-01T08:33:46;5.30;99.90
8896;DHT22;4484;48.928;10.066;2023-03-01T08:36:28;5.10;99.90
8896;DHT22;4484;48.928;10.066;2023-03-01T08:38:56;5.50;99.90
8896;DHT22;4484;48.928;10.066;2023-03-01T08:41:23;6.10;99.90
8896;DHT22;4484;48.928;10.066;2023-03-01T08:43:50;6.50;99.90
8896;DHT22;4484;48.928;10.066;2023-03-01T08:46:17;7.10;99.90
8896;DHT22;4484;48.928;10.066;2023-03-01T08:48:44;7.30;99.90
8896;DHT22;4484;48.928;10.066;2023-03-01T08:51:14;7.30;99.90
8896;DHT22;4484;48.928;10.066;2023-03-01T08:53:42;7.30;99.90
8896;DHT22;4484;48.928;10.066;2023-03-01T08:56:09;7.00;97.60
8896;DHT22;4484;48.928;10.066;2023-03-01T08:58:37;6.80;98.20
8896;DHT22;4484;48.928;10.066;2023-03-01T09:01:08;6.50;98.20
8896;DHT22;4484;48.928;10.066;2023-03-01T09:03:36;6.70;99.90
8896;DHT22;4484;48.928;10.066;2023-03-01T09:06:04;7.00;98.90
8896;DHT22;4484;48.928;10.066;2023-03-01T09:08:34;7.20;97.80
8896;DHT22;4484;48.928;10.066;2023-03-01T09:11:03;7.30;98.80
8896;DHT22;4484;48.928;10.066;2023-03-01T09:13:30;7.70;99.90
8896;DHT22;4484;48.928;10.066;2023-03-01T09:16:01;8.20;98.10
8896;DHT22;4484;48.928;10.066;2023-03-01T09:18:29;8.80;98.60
8896;DHT22;4484;48.928;10.066;2023-03-01T09:21:03;9.30;93.80
8896;DHT22;4484;48.928;10.066;2023-03-01T09:23:38;9.40;94.60
8896;DHT22;4484;48.928;10.066;2023-03-01T09:26:11;9.80;93.20
8896;DHT22;4484;48.928;10.066;2023-03-01T09:28:38;10.10;93.50
8896;DHT22;4484;48.928;10.066;2023-03-01T09:31:05;10.40;87.80
8896;DHT22;4484;48.928;10.066;2023-03-01T09:33:33;10.70;87.90
8896;DHT22;4484;48.928;10.066;2023-03-01T09:36:02;10.60;84.60
8896;DHT22;4484;48.928;10.066;2023-03-01T09:38:29;10.30;79.70
8896;DHT22;4484;48.928;10.066;2023-03-01T09:40:57;9.80;85.60
8896;DHT22;4484;48.928;10.066;2023-03-01T09:43:35;9.70;84.50
8896;DHT22;4484;48.928;10.066;2023-03-01T09:46:06;9.10;81.00
8896;DHT22;4484;48.928;10.066;2023-03-01T09:48:58;8.30;81.40
8896;DHT22;4484;48.928;10.066;2023-03-01T09:51:36;7.90;85.90
8896;DHT22;4484;48.928;10.066;2023-03-01T09:54:04;7.50;85.80
8896;DHT22;4484;48.928;10.066;2023-03-01T09:57:01;7.60;87.40
8896;DHT22;4484;48.928;10.066;2023-03-01T10:03:39;8.10;85.10
8896;DHT22;4484;48.928;10.066;2023-03-01T10:06:23;8.10;86.50
8896;DHT22;4484;48.928;10.066;2023-03-01T10:09:07;8.00;84.00
8896;DHT22;4484;48.928;10.066;2023-03-01T10:11:45;7.70;85.10
8896;DHT22;4484;48.928;10.066;2023-03-01T10:16:57;8.10;86.40
8896;DHT22;4484;48.928;10.066;2023-03-01T10:19:32;8.30;84.30
8896;DHT22;4484;48.928;10.066;2023-03-01T10:22:24;8.00;83.80
8896;DHT22;4484;48.928;10.066;2023-03-01T10:24:54;8.10;84.10
8896;DHT22;4484;48.928;10.066;2023-03-01T10:27:49;8.00;85.00
8896;DHT22;4484;48.928;10.066;2023-03-01T10:30:17;7.90;84.90
8896;DHT22;4484;48.928;10.066;2023-03-01T10:32:49;8.10;85.70
8896;DHT22;4484;48.928;10.066;2023-03-01T10:35:26;8.40;86.60
8896;DHT22;4484;48.928;10.066;2023-03-01T10:40:25;9.10;85.90
8896;DHT22;4484;48.928;10.066;2023-03-01T10:42:52;9.20;83.30
8896;DHT22;4484;48.928;10.066;2023-03-01T10:45:37;9.40;83.40
8896;DHT22;4484;48.928;10.066;2023-03-01T10:48:20;9.40;85.40
8896;DHT22;4484;48.928;10.066;2023-03-01T10:53:28;9.80;82.10
8896;DHT22;4484;48.928;10.066;2023-03-01T10:56:08;9.90;80.70
8896;DHT22;4484;48.928;10.066;2023-03-01T10:58:38;10.00;78.80
8896;DHT22;4484;48.928;10.066;2023-03-01T11:01:26;10.10;79.40
8896;DHT22;4484;48.928;10.066;2023-03-01T11:06:38;10.70;85.10
8896;DHT22;4484;48.928;10.066;2023-03-01T11:09:20;11.00;78.70
8896;DHT22;4484;48.928;10.066;2023-03-01T11:11:52;11.30;77.80
8896;DHT22;4484;48.928;10.066;2023-03-01T11:14:28;11.20;74.80
8896;DHT22;4484;48.928;10.066;2023-03-01T11:17:43;10.90;79.60
8896;DHT22;4484;48.928;10.066;2023-03-01T11:23:00;11.80;77.90
8896;DHT22;4484;48.928;10.066;2023-03-01T11:25:37;11.40;72.80
8896;DHT22;4484;48.928;10.066;2023-03-01T11:28:05;10.90;72.70
8896;DHT22;4484;48.928;10.066;2023-03-01T11:31:08;11.20;83.00
8896;DHT22;4484;48.928;10.066;2023-03-01T11:33:48;11.80;77.30
8896;DHT22;4484;48.928;10.066;2023-03-01T11:36:36;12.10;72.40
8896;DHT22;4484;48.928;10.066;2023-03-01T11:41:52;12.40;71.10
8896;DHT22;4484;48.928;10.066;2023-03-01T11:44:36;12.40;72.40
8896;DHT22;4484;48.928;10.066;2023-03-01T11:55:35;12.30;71.70
8896;DHT22;4484;48.928;10.066;2023-03-01T12:01:12;13.50;77.00
8896;DHT22;4484;48.928;10.066;2023-03-01T12:07:00;14.30;76.80
8896;DHT22;4484;48.928;10.066;2023-03-01T12:12:27;15.40;71.60
8896;DHT22;4484;48.928;10.066;2023-03-01T12:18:30;15.60;63.90
8896;DHT22;4484;48.928;10.066;2023-03-01T12:23:49;15.00;64.60
8896;DHT22;4484;48.928;10.066;2023-03-01T12:35:06;15.10;63.40
8896;DHT22;4484;48.928;10.066;2023-03-01T12:37:48;15.20;63.10
8896;DHT22;4484;48.928;10.066;2023-03-01T12:40:33;15.30;64.50
8896;DHT22;4484;48.928;10.066;2023-03-01T12:43:23;15.30;64.50
8896;DHT22;4484;48.928;10.066;2023-03-01T12:46:06;15.10;62.30
8896;DHT22;4484;48.928;10.066;2023-03-01T12:52:54;14.70;59.90
8896;DHT22;4484;48.928;10.066;2023-03-01T12:55:02;14.20;64.00
8896;DHT22;4484;48.928;10.066;2023-03-01T12:58:02;14.30;65.00
8896;DHT22;4484;48.928;10.066;2023-03-01T13:00:54;14.30;66.50
8896;DHT22;4484;48.928;10.066;2023-03-01T13:06:32;14.40;67.70
8896;DHT22;4484;48.928;10.066;2023-03-01T13:09:30;14.50;67.40
8896;DHT22;4484;48.928;10.066;2023-03-01T13:12:00;14.60;65.50
8896;DHT22;4484;48.928;10.066;2023-03-01T13:14:37;14.80;65.80
8896;DHT22;4484;48.928;10.066;2023-03-01T13:17:04;14.90;66.60
8896;DHT22;4484;48.928;10.066;2023-03-01T13:19:31;15.00;64.30
8896;DHT22;4484;48.928;10.066;2023-03-01T13:21:59;15.30;66.00
8896;DHT22;4484;48.928;10.066;2023-03-01T13:24:41;15.10;60.30
8896;DHT22;4484;48.928;10.066;2023-03-01T13:30:02;13.90;60.80
8896;DHT22;4484;48.928;10.066;2023-03-01T13:32:31;13.50;64.60
8896;DHT22;4484;48.928;10.066;2023-03-01T13:37:37;12.60;62.30
8896;DHT22;4484;48.928;10.066;2023-03-01T13:42:53;12.10;63.90
8896;DHT22;4484;48.928;10.066;2023-03-01T13:45:39;11.90;67.70
8896;DHT22;4484;48.928;10.066;2023-03-01T13:48:20;11.90;69.20
8896;DHT22;4484;48.928;10.066;2023-03-01T13:50:55;11.80;66.50
8896;DHT22;4484;48.928;10.066;2023-03-01T13:53:27;12.20;72.10
8896;DHT22;4484;48.928;10.066;2023-03-01T13:56:02;12.40;67.10
8896;DHT22;4484;48.928;10.066;2023-03-01T13:58:32;12.50;66.40
8896;DHT22;4484;48.928;10.066;2023-03-01T14:01:05;12.10;65.10
8896;DHT22;4484;48.928;10.066;2023-03-01T14:03:39;11.80;64.30
8896;DHT22;4484;48.928;10.066;2023-03-01T14:06:17;11.60;68.70
8896;DHT22;4484;48.928;10.066;2023-03-01T14:08:49;11.60;65.90
8896;DHT22;4484;48.928;10.066;2023-03-01T14:14:29;11.40;70.30
8896;DHT22;4484;48.928;10.066;2023-03-01T14:19:45;11.40;68.50
8896;DHT22;4484;48.928;10.066;2023-03-01T14:22:42;11.30;68.30
8896;DHT22;4484;48.928;10.066;2023-03-01T14:25:33;11.30;69.20
8896;DHT22;4484;48.928;10.066;2023-03-01T14:30:46;11.50;68.80
8896;DHT22;4484;48.928;10.066;2023-03-01T14:35:59;11.20;69.30
8896;DHT22;4484;48.928;10.066;2023-03-01T14:41:17;11.00;70.50
8896;DHT22;4484;48.928;10.066;2023-03-01T14:43:50;10.90;69.40
8896;DHT22;4484;48.928;10.066;2023-03-01T14:48:57;10.50;69.50
8896;DHT22;4484;48.928;10.066;2023-03-01T14:51:27;10.20;70.40
8896;DHT22;4484;48.928;10.066;2023-03-01T14:53:55;10.10;72.60
8896;DHT22;4484;48.928;10.066;2023-03-01T14:56:22;10.20;73.40
8896;DHT22;4484;48.928;10.066;2023-03-01T14:58:57;10.10;73.70
8896;DHT22;4484;48.928;10.066;2023-03-01T15:01:25;10.10;72.60
8896;DHT22;4484;48.928;10.066;2023-03-01T15:03:53;10.00;70.40
8896;DHT22;4484;48.928;10.066;2023-03-01T15:06:22;9.80;72.90
8896;DHT22;4484;48.928;10.066;2023-03-01T15:08:53;9.70;74.30
8896;DHT22;4484;48.928;10.066;2023-03-01T15:11:30;9.70;77.10
8896;DHT22;4484;48.928;10.066;2023-03-01T15:13:57;9.70;74.70
8896;DHT22;4484;48.928;10.066;2023-03-01T15:16:30;9.60;74.90
8896;DHT22;4484;48.928;10.066;2023-03-01T15:19:06;9.40;75.70
8896;DHT22;4484;48.928;10.066;2023-03-01T15:21:35;9.30;75.10
8896;DHT22;4484;48.928;10.066;2023-03-01T15:24:08;9.10;76.30
8896;DHT22;4484;48.928;10.066;2023-03-01T15:26:59;8.90;76.70
8896;DHT22;4484;48.928;10.066;2023-03-01T15:29:34;8.70;76.70
8896;DHT22;4484;48.928;10.066;2023-03-01T15:32:31;8.70;79.20
8896;DHT22;4484;48.928;10.066;2023-03-01T15:35:01;8.60;78.50
8896;DHT22;4484;48.928;10.066;2023-03-01T15:37:49;8.50;78.70
8896;DHT22;4484;48.928;10.066;2023-03-01T15:40:28;8.40;78.20
8896;DHT22;4484;48.928;10.066;2023-03-01T15:43:05;8.20;79.90
8896;DHT22;4484;48.928;10.066;2023-03-01T15:45:40;8.10;79.20
8896;DHT22;4484;48.928;10.066;2023-03-01T15:48:18;8.00;81.90
8896;DHT22;4484;48.928;10.066;2023-03-01T15:50:54;7.90;82.00
8896;DHT22;4484;48.928;10.066;2023-03-01T15:53:22;7.80;82.60
8896;DHT22;4484;48.928;10.066;2023-03-01T15:55:49;7.80;83.10
8896;DHT22;4484;48.928;10.066;2023-03-01T15:58:22;7.70;82.70
8896;DHT22;4484;48.928;10.066;2023-03-01T16:00:51;7.60;83.60
8896;DHT22;4484;48.928;10.066;2023-03-01T16:03:28;7.50;83.20
8896;DHT22;4484;48.928;10.066;2023-03-01T16:05:55;7.40;83.60
8896;DHT22;4484;48.928;10.066;2023-03-01T16:08:22;7.30;84.60
8896;DHT22;4484;48.928;10.066;2023-03-01T16:10:49;7.10;85.10
8896;DHT22;4484;48.928;10.066;2023-03-01T16:13:17;7.00;85.00
8896;DHT22;4484;48.928;10.066;2023-03-01T16:15:44;6.90;85.00
8896;DHT22;4484;48.928;10.066;2023-03-01T16:18:11;6.70;85.20
8896;DHT22;4484;48.928;10.066;2023-03-01T16:20:39;6.60;85.70
8896;DHT22;4484;48.928;10.066;2023-03-01T16:23:07;6.50;85.80
8896;DHT22;4484;48.928;10.066;2023-03-01T16:25:35;6.40;87.30
8896;DHT22;4484;48.928;10.066;2023-03-01T16:28:02;6.30;87.50
8896;DHT22;4484;48.928;10.066;2023-03-01T16:30:35;6.10;88.70
8896;DHT22;4484;48.928;10.066;2023-03-01T16:33:03;6.00;89.50
8896;DHT22;4484;48.928;10.066;2023-03-01T16:35:50;5.90;90.40
8896;DHT22;4484;48.928;10.066;2023-03-01T16:38:17;5.70;90.70
8896;DHT22;4484;48.928;10.066;2023-03-01T16:40:49;5.60;91.30
8896;DHT22;4484;48.928;10.066;2023-03-01T16:43:16;5.50;91.70
8896;DHT22;4484;48.928;10.066;2023-03-01T16:45:43;5.40;91.80
8896;DHT22;4484;48.928;10.066;2023-03-01T16:48:12;5.30;92.30
8896;DHT22;4484;48.928;10.066;2023-03-01T16:50:39;5.20;92.90
8896;DHT22;4484;48.928;10.066;2023-03-01T16:53:06;5.10;93.60
8896;DHT22;4484;48.928;10.066;2023-03-01T16:55:32;5.00;94.10
8896;DHT22;4484;48.928;10.066;2023-03-01T16:58:00;4.90;94.40
8896;DHT22;4484;48.928;10.066;2023-03-01T17:00:27;4.80;95.20
8896;DHT22;4484;48.928;10.066;2023-03-01T17:02:54;4.70;95.50
8896;DHT22;4484;48.928;10.066;2023-03-01T17:05:21;4.70;96.20
8896;DHT22;4484;48.928;10.066;2023-03-01T17:07:50;4.50;96.40
8896;DHT22;4484;48.928;10.066;2023-03-01T17:10:17;4.50;97.10
8896;DHT22;4484;48.928;10.066;2023-03-01T17:12:44;4.40;97.50
8896;DHT22;4484;48.928;10.066;2023-03-01T17:15:14;4.30;98.00
8896;DHT22;4484;48.928;10.066;2023-03-01T17:17:40;4.20;98.40
8896;DHT22;4484;48.928;10.066;2023-03-01T17:20:08;4.10;98.90
8896;DHT22;4484;48.928;10.066;2023-03-01T17:22:35;4.00;99.30
8896;DHT22;4484;48.928;10.066;2023-03-01T17:25:02;3.90;99.70
8896;DHT22;4484;48.928;10.066;2023-03-01T17:27:29;3.80;99.90
8896;DHT22;4484;48.928;10.066;2023-03-01T17:29:56;3.80;99.90
8896;DHT22;4484;48.928;10.066;2023-03-01T17:32:22;3.80;99.90
8896;DHT22;4484;48.928;10.066;2023-03-01T17:34:49;3.70;99.90
8896;DHT22;4484;48.928;10.066;2023-03-01T17:37:16;3.60;99.90
8896;DHT22;4484;48.928;10.066;2023-03-01T17:39:43;3.50;99.90
8896;DHT22;4484;48.928;10.066;2023-03-01T17:42:10;3.50;99.90
8896;DHT22;4484;48.928;10.066;2023-03-01T17:44:37;3.40;99.90
8896;DHT22;4484;48.928;10.066;2023-03-01T17:47:04;3.30;99.90
8896;DHT22;4484;48.928;10.066;2023-03-01T17:49:32;3.20;99.90
8896;DHT22;4484;48.928;10.066;2023-03-01T17:51:59;3.20;99.90